createdAt,value
2019-01-29T00:00:53.086Z,703.3
2019-01-29T00:01:55.523Z,703.3
2019-01-29T00:02:57.941Z,703
2019-01-29T00:04:00.100Z,703.2
2019-01-29T00:05:02.520Z,703.2
2019-01-29T00:06:04.663Z,703.2
2019-01-29T00:07:07.080Z,703.1
2019-01-29T00:08:09.239Z,702.8
2019-01-29T00:09:11.671Z,702.8
2019-01-29T00:10:13.790Z,703
2019-01-29T00:11:16.215Z,702.3
2019-01-29T00:12:18.637Z,702.6
2019-01-29T00:13:21.064Z,702.3
2019-01-29T00:14:23.488Z,702.5
2019-01-29T00:15:25.635Z,702.2
2019-01-29T00:16:28.073Z,701.9
2019-01-29T00:17:30.235Z,702.4
2019-01-29T00:18:32.384Z,701.7
2019-01-29T00:19:34.545Z,701.9
2019-01-29T00:20:36.974Z,701.7
2019-01-29T00:21:38.595Z,701.6
2019-01-29T00:22:40.471Z,701.8
2019-01-29T00:23:42.815Z,701.3
2019-01-29T00:24:45.255Z,701.4
2019-01-29T00:25:47.695Z,701.7
2019-01-29T00:26:50.118Z,701.9
2019-01-29T00:27:51.996Z,701.2
2019-01-29T00:28:53.855Z,701.2
2019-01-29T00:29:55.717Z,701.4
2019-01-29T00:30:57.865Z,701.1
2019-01-29T00:31:59.719Z,701.1
2019-01-29T00:33:02.152Z,701.2
2019-01-29T00:34:04.577Z,701.1
2019-01-29T00:35:06.991Z,700.9
2019-01-29T00:36:09.149Z,700.6
2019-01-29T00:37:11.285Z,700.7
2019-01-29T00:38:13.711Z,700.7
2019-01-29T00:39:16.133Z,701.1
2019-01-29T00:40:18.554Z,700.3
2019-01-29T00:41:20.975Z,700.8
2019-01-29T00:42:23.403Z,700.9
2019-01-29T00:43:25.562Z,701.1
2019-01-29T00:44:27.707Z,700.5
2019-01-29T00:45:29.843Z,700.8
2019-01-29T00:46:32.005Z,700.6
2019-01-29T00:47:34.425Z,700.9
2019-01-29T00:48:36.875Z,701
2019-01-29T00:49:39.301Z,700.7
2019-01-29T00:50:41.223Z,700.8
2019-01-29T00:51:43.637Z,700.4
2019-01-29T00:52:46.061Z,700.1
2019-01-29T00:53:48.567Z,700.4
2019-01-29T00:54:50.976Z,700.4
2019-01-29T00:55:53.404Z,700.3
2019-01-29T00:56:55.565Z,700
2019-01-29T00:57:57.994Z,699.9
2019-01-29T00:59:00.424Z,699.7
2019-01-29T01:00:02.558Z,699.7
2019-01-29T01:01:04.153Z,699.2
2019-01-29T01:02:06.587Z,699.2
2019-01-29T01:03:08.741Z,699.3
2019-01-29T01:04:11.165Z,699.3
2019-01-29T01:05:13.313Z,699
2019-01-29T01:06:15.745Z,698.9
2019-01-29T01:07:18.203Z,698.3
2019-01-29T01:08:20.356Z,698.2
2019-01-29T01:09:22.515Z,698.3
2019-01-29T01:10:24.945Z,698.4
2019-01-29T01:11:27.365Z,697.9
2019-01-29T01:12:29.820Z,697.8
2019-01-29T01:13:32.270Z,697.8
2019-01-29T01:14:34.682Z,697.4
2019-01-29T01:15:37.102Z,697.7
2019-01-29T01:16:39.526Z,697.5
2019-01-29T01:17:41.965Z,697.6
2019-01-29T01:18:44.389Z,697.4
2019-01-29T01:19:46.816Z,697.2
2019-01-29T01:20:48.955Z,697.1
2019-01-29T01:21:51.394Z,697.6
2019-01-29T01:22:53.805Z,696.6
2019-01-29T01:23:56.232Z,696.9
2019-01-29T01:24:58.423Z,696.6
2019-01-29T01:26:00.316Z,696.7
2019-01-29T01:27:02.476Z,696.8
2019-01-29T01:28:04.895Z,696.5
2019-01-29T01:29:07.050Z,696.7
2019-01-29T01:30:09.192Z,696.3
2019-01-29T01:31:11.614Z,696
2019-01-29T01:32:13.491Z,696.2
2019-01-29T01:33:15.661Z,696.4
2019-01-29T01:34:17.535Z,696.4
2019-01-29T01:35:19.692Z,696.5
2019-01-29T01:36:22.114Z,696.6
2019-01-29T01:37:24.277Z,696.6
2019-01-29T01:38:26.700Z,696.2
2019-01-29T01:39:28.589Z,696.3
2019-01-29T01:40:31.013Z,695.8
2019-01-29T01:41:33.169Z,696.3
2019-01-29T01:42:35.309Z,695.9
2019-01-29T01:43:37.165Z,695.7
2019-01-29T01:44:39.606Z,696
2019-01-29T01:45:41.485Z,696
2019-01-29T01:46:43.630Z,695.9
2019-01-29T01:47:45.506Z,695.7
2019-01-29T01:48:47.937Z,695.6
2019-01-29T01:49:50.355Z,695.5
2019-01-29T01:50:52.234Z,695.5
2019-01-29T01:51:54.666Z,695.2
2019-01-29T01:54:01.799Z,695
2019-01-29T01:55:03.657Z,695
2019-01-29T01:56:06.079Z,694.6
2019-01-29T01:57:08.505Z,695.1
2019-01-29T01:58:10.379Z,694.5
2019-01-29T01:59:12.809Z,694.6
2019-01-29T02:00:15.255Z,694.3
2019-01-29T02:01:17.405Z,694.7
2019-01-29T02:02:19.588Z,694.6
2019-01-29T02:03:21.739Z,694.3
2019-01-29T02:04:24.173Z,694.4
2019-01-29T02:05:26.611Z,694.2
2019-01-29T02:06:28.481Z,694
2019-01-29T02:07:30.901Z,694
2019-01-29T02:08:33.315Z,694.1
2019-01-29T02:09:35.463Z,693.9
2019-01-29T02:10:37.620Z,693.9
2019-01-29T02:11:39.471Z,694
2019-01-29T02:12:41.365Z,693.8
2019-01-29T02:13:43.527Z,693.3
2019-01-29T02:14:45.665Z,693.8
2019-01-29T02:15:48.095Z,693.6
2019-01-29T02:16:50.517Z,693.5
2019-01-29T02:17:52.956Z,693.2
2019-01-29T02:18:55.377Z,693.5
2019-01-29T02:19:57.793Z,693
2019-01-29T02:20:59.938Z,692.7
2019-01-29T02:22:02.086Z,692.8
2019-01-29T02:24:08.928Z,692.4
2019-01-29T02:25:11.345Z,692.3
2019-01-29T02:26:13.779Z,692.1
2019-01-29T02:27:16.203Z,692
2019-01-29T02:28:18.635Z,691.5
2019-01-29T02:29:20.778Z,691.6
2019-01-29T02:30:22.949Z,691.5
2019-01-29T02:31:25.095Z,691
2019-01-29T02:32:27.263Z,690.9
2019-01-29T02:33:29.421Z,691.3
2019-01-29T02:34:31.573Z,691
2019-01-29T02:35:33.717Z,690.9
2019-01-29T02:36:36.143Z,690.7
2019-01-29T02:37:38.559Z,690.6
2019-01-29T02:38:40.983Z,690.4
2019-01-29T02:39:43.144Z,690.4
2019-01-29T02:40:45.567Z,690.1
2019-01-29T02:41:48.013Z,690.4
2019-01-29T02:42:50.425Z,690.4
2019-01-29T02:43:52.856Z,690.1
2019-01-29T02:44:55.070Z,690
2019-01-29T02:45:57.487Z,689.6
2019-01-29T02:46:59.659Z,689.8
2019-01-29T02:48:02.080Z,689.5
2019-01-29T02:49:04.513Z,689.7
2019-01-29T02:50:06.667Z,689
2019-01-29T02:51:09.093Z,689.5
2019-01-29T02:52:11.513Z,689
2019-01-29T02:54:18.915Z,688.9
2019-01-29T02:55:21.074Z,688.8
2019-01-29T02:56:23.513Z,689.2
2019-01-29T02:57:25.952Z,688.7
2019-01-29T02:58:28.361Z,688.9
2019-01-29T02:59:30.242Z,688.6
2019-01-29T03:00:32.664Z,688.7
2019-01-29T03:01:34.806Z,688.7
2019-01-29T03:02:36.951Z,688.3
2019-01-29T03:03:39.386Z,688.9
2019-01-29T03:04:41.543Z,688.6
2019-01-29T03:05:43.421Z,688.4
2019-01-29T03:06:45.553Z,688.5
2019-01-29T03:07:47.987Z,688.6
2019-01-29T03:08:50.405Z,688.4
2019-01-29T03:09:52.289Z,688.2
2019-01-29T03:10:54.713Z,689
2019-01-29T03:11:56.854Z,688.9
2019-01-29T03:12:59.285Z,688.8
2019-01-29T03:14:01.714Z,689.2
2019-01-29T03:15:03.879Z,688.9
2019-01-29T03:16:05.742Z,689
2019-01-29T03:17:07.882Z,688.6
2019-01-29T03:18:10.305Z,688.2
2019-01-29T03:19:12.191Z,687.8
2019-01-29T03:20:14.618Z,688
2019-01-29T03:21:17.104Z,687.6
2019-01-29T03:22:19.527Z,687.3
2019-01-29T03:24:26.671Z,686.9
2019-01-29T03:25:28.550Z,686.2
2019-01-29T03:26:30.423Z,686.3
2019-01-29T03:27:32.848Z,685.9
2019-01-29T03:28:34.986Z,686.2
2019-01-29T03:29:37.414Z,685.8
2019-01-29T03:30:39.673Z,685.5
2019-01-29T03:31:41.830Z,686
2019-01-29T03:32:44.021Z,685.7
2019-01-29T03:33:46.435Z,685.2
2019-01-29T03:34:48.856Z,685.2
2019-01-29T03:35:51.025Z,685
2019-01-29T03:36:53.189Z,684.9
2019-01-29T03:37:55.355Z,685.1
2019-01-29T03:38:57.495Z,684.7
2019-01-29T03:39:59.649Z,684.5
2019-01-29T03:41:01.806Z,684.5
2019-01-29T03:42:03.936Z,684.4
2019-01-29T03:43:05.532Z,684.1
2019-01-29T03:44:07.967Z,684.1
2019-01-29T03:45:09.558Z,683.8
2019-01-29T03:46:11.697Z,684.2
2019-01-29T03:47:14.134Z,684
2019-01-29T03:48:16.560Z,683.7
2019-01-29T03:49:18.982Z,683.7
2019-01-29T03:50:21.448Z,683.9
2019-01-29T03:51:23.335Z,683.5
2019-01-29T03:52:25.486Z,683.5
2019-01-29T03:54:34.068Z,683.4
2019-01-29T03:55:36.488Z,683.6
2019-01-29T03:56:38.696Z,683.2
2019-01-29T03:57:41.131Z,682.9
2019-01-29T03:58:43.576Z,682.9
2019-01-29T03:59:46.006Z,683.2
2019-01-29T04:00:48.172Z,682.9
2019-01-29T04:01:50.066Z,682.5
2019-01-29T04:02:52.492Z,682.4
2019-01-29T04:03:54.628Z,682.2
2019-01-29T04:04:57.044Z,682.4
2019-01-29T04:05:59.466Z,682.3
2019-01-29T04:07:01.900Z,682.3
2019-01-29T04:08:04.320Z,682.1
2019-01-29T04:09:06.460Z,682
2019-01-29T04:10:08.588Z,682.2
2019-01-29T04:11:11.010Z,682.2
2019-01-29T04:12:12.878Z,682.1
2019-01-29T04:13:15.024Z,681.8
2019-01-29T04:14:17.194Z,682.4
2019-01-29T04:15:19.351Z,681.8
2019-01-29T04:16:21.514Z,682
2019-01-29T04:17:23.655Z,681.5
2019-01-29T04:18:25.808Z,682.2
2019-01-29T04:19:27.695Z,681.9
2019-01-29T04:20:29.855Z,681.8
2019-01-29T04:21:31.754Z,681.7
2019-01-29T04:22:33.914Z,681.9
2019-01-29T04:23:36.336Z,681.9
2019-01-29T04:24:38.758Z,681.9
2019-01-29T04:25:41.202Z,682
2019-01-29T04:26:43.069Z,681.9
2019-01-29T04:27:44.963Z,681.8
2019-01-29T04:28:47.099Z,681.7
2019-01-29T04:29:49.243Z,681.9
2019-01-29T04:30:51.666Z,681.9
2019-01-29T04:31:53.824Z,681.9
2019-01-29T04:32:57.080Z,681.9
2019-01-29T04:33:59.540Z,681.6
2019-01-29T04:35:02.093Z,681.9
2019-01-29T04:36:04.551Z,681.9
2019-01-29T04:37:06.707Z,681.8
2019-01-29T04:38:09.150Z,681.8
2019-01-29T04:39:11.586Z,681.7
2019-01-29T04:40:14.004Z,681.8
2019-01-29T04:41:16.476Z,681.1
2019-01-29T04:42:18.357Z,681.2
2019-01-29T04:43:20.513Z,681.4
2019-01-29T04:44:22.954Z,681.6
2019-01-29T04:45:25.122Z,681.5
2019-01-29T04:46:27.282Z,681.1
2019-01-29T04:47:29.714Z,681
2019-01-29T04:48:31.864Z,680.9
2019-01-29T04:49:34.370Z,681.1
2019-01-29T04:50:36.554Z,681
2019-01-29T04:51:38.714Z,681
2019-01-29T04:52:40.588Z,681
2019-01-29T04:53:43.001Z,681.1
2019-01-29T04:54:44.583Z,680.9
2019-01-29T04:55:46.740Z,680.9
2019-01-29T04:56:48.881Z,681.3
2019-01-29T04:57:51.035Z,681.2
2019-01-29T04:58:53.195Z,681.2
2019-01-29T04:59:55.622Z,680.9
2019-01-29T05:00:58.054Z,681.2
2019-01-29T05:02:00.463Z,681
2019-01-29T05:03:02.641Z,680.6
2019-01-29T05:04:04.793Z,680.9
2019-01-29T05:05:06.934Z,680.9
2019-01-29T05:06:09.089Z,680.8
2019-01-29T05:07:11.514Z,680.6
2019-01-29T05:08:13.745Z,680.2
2019-01-29T05:09:16.160Z,680.4
2019-01-29T05:10:18.585Z,680.4
2019-01-29T05:11:21.036Z,680.7
2019-01-29T05:12:23.459Z,680.5
2019-01-29T05:13:26.073Z,680.2
2019-01-29T05:14:28.492Z,680.3
2019-01-29T05:15:30.371Z,680.8
2019-01-29T05:16:32.804Z,680.6
2019-01-29T05:17:34.945Z,680.7
2019-01-29T05:18:37.110Z,680.3
2019-01-29T05:19:39.523Z,680.3
2019-01-29T05:20:41.951Z,680.3
2019-01-29T05:21:43.568Z,680.4
2019-01-29T05:22:45.998Z,680.5
2019-01-29T05:23:48.444Z,680.4
2019-01-29T05:24:50.605Z,680.4
2019-01-29T05:25:53.032Z,680.3
2019-01-29T05:26:55.470Z,680.1
2019-01-29T05:27:57.623Z,679.9
2019-01-29T05:29:00.053Z,680.1
2019-01-29T05:30:02.200Z,679.9
2019-01-29T05:31:04.060Z,680
2019-01-29T05:32:06.213Z,679.3
2019-01-29T05:33:08.640Z,679.6
2019-01-29T05:34:11.056Z,679.5
2019-01-29T05:35:13.489Z,679.4
2019-01-29T05:36:15.648Z,679.2
2019-01-29T05:37:18.082Z,679.3
2019-01-29T05:38:20.226Z,679
2019-01-29T05:39:22.380Z,679.1
2019-01-29T05:40:24.814Z,678.7
2019-01-29T05:41:27.242Z,679.1
2019-01-29T05:42:29.661Z,679
2019-01-29T05:43:32.084Z,678.8
2019-01-29T05:44:34.515Z,678.4
2019-01-29T05:45:36.834Z,678.3
2019-01-29T05:46:38.997Z,678.1
2019-01-29T05:47:41.151Z,678.6
2019-01-29T05:48:43.025Z,678.2
2019-01-29T05:49:45.468Z,678.1
2019-01-29T05:50:47.606Z,677.9
2019-01-29T05:51:49.765Z,677.7
2019-01-29T05:52:52.197Z,677.4
2019-01-29T05:53:54.604Z,677.6
2019-01-29T05:54:56.752Z,677.6
2019-01-29T05:55:58.916Z,677.6
2019-01-29T05:57:01.334Z,677.1
2019-01-29T05:58:03.775Z,677.3
2019-01-29T05:59:05.922Z,677
2019-01-29T06:00:07.825Z,677
2019-01-29T06:01:09.978Z,677.1
2019-01-29T06:02:12.400Z,677.3
2019-01-29T06:03:14.545Z,676.8
2019-01-29T06:04:16.975Z,676.4
2019-01-29T06:05:19.406Z,676.8
2019-01-29T06:06:21.943Z,676.5
2019-01-29T06:07:24.364Z,677
2019-01-29T06:08:26.260Z,676.1
2019-01-29T06:09:28.701Z,676.5
2019-01-29T06:10:31.155Z,676.5
2019-01-29T06:11:33.615Z,676.5
2019-01-29T06:12:35.827Z,676.4
2019-01-29T06:13:37.721Z,676
2019-01-29T06:14:39.944Z,676.4
2019-01-29T06:15:41.850Z,676.3
2019-01-29T06:16:44.005Z,676
2019-01-29T06:17:46.445Z,675.9
2019-01-29T06:18:48.594Z,675.9
2019-01-29T06:19:50.756Z,676.2
2019-01-29T06:20:53.195Z,676
2019-01-29T06:21:55.632Z,675.8
2019-01-29T06:22:57.790Z,676
2019-01-29T06:24:00.254Z,675.8
2019-01-29T06:25:02.895Z,675.6
2019-01-29T06:26:05.323Z,675.7
2019-01-29T06:27:07.476Z,675.3
2019-01-29T06:28:09.618Z,675
2019-01-29T06:29:12.044Z,675.4
2019-01-29T06:30:14.482Z,675.1
2019-01-29T06:31:16.622Z,675
2019-01-29T06:32:18.766Z,675
2019-01-29T06:33:21.203Z,674.9
2019-01-29T06:34:23.368Z,674.4
2019-01-29T06:35:25.525Z,674.9
2019-01-29T06:36:27.941Z,674.6
2019-01-29T06:37:30.427Z,674.5
2019-01-29T06:38:32.851Z,674
2019-01-29T06:39:35.260Z,674.1
2019-01-29T06:40:37.694Z,674.1
2019-01-29T06:41:39.854Z,674.1
2019-01-29T06:42:42.007Z,674.3
2019-01-29T06:43:43.894Z,673.9
2019-01-29T06:44:46.325Z,673.5
2019-01-29T06:45:48.754Z,673.5
2019-01-29T06:46:50.935Z,673.7
2019-01-29T06:47:53.557Z,673.3
2019-01-29T06:48:55.634Z,673.8
2019-01-29T06:49:58.056Z,673.4
2019-01-29T06:51:00.191Z,673.4
2019-01-29T06:52:02.354Z,673.7
2019-01-29T06:53:04.775Z,673.6
2019-01-29T06:54:06.989Z,673.1
2019-01-29T06:55:08.596Z,673.3
2019-01-29T06:56:10.759Z,673.3
2019-01-29T06:57:13.170Z,673
2019-01-29T06:58:15.594Z,672.8
2019-01-29T06:59:18.021Z,673.2
2019-01-29T07:00:19.914Z,673.1
2019-01-29T07:01:22.068Z,673
2019-01-29T07:02:24.521Z,672.6
2019-01-29T07:03:26.959Z,672.9
2019-01-29T07:04:29.382Z,672.6
2019-01-29T07:05:31.815Z,672.6
2019-01-29T07:06:34.243Z,672.5
2019-01-29T07:07:36.663Z,672.6
2019-01-29T07:08:38.805Z,672.6
2019-01-29T07:09:40.416Z,672.5
2019-01-29T07:10:44.710Z,672.2
2019-01-29T07:11:46.879Z,672.3
2019-01-29T07:12:49.358Z,672.2
2019-01-29T07:13:51.497Z,672.1
2019-01-29T07:14:53.629Z,672.2
2019-01-29T07:15:56.066Z,672.1
2019-01-29T07:16:58.494Z,671.8
2019-01-29T07:18:00.682Z,671.9
2019-01-29T07:19:03.131Z,672
2019-01-29T07:20:05.563Z,671.7
2019-01-29T07:21:07.996Z,671.8
2019-01-29T07:22:10.146Z,672
2019-01-29T07:23:12.576Z,671.6
2019-01-29T07:24:15.006Z,671.7
2019-01-29T07:25:17.435Z,671.6
2019-01-29T07:26:19.052Z,671.6
2019-01-29T07:27:20.909Z,671
2019-01-29T07:28:23.333Z,670.9
2019-01-29T07:29:24.950Z,670.9
2019-01-29T07:30:27.377Z,670.5
2019-01-29T07:31:29.827Z,670.5
2019-01-29T07:32:31.967Z,670.3
2019-01-29T07:33:33.839Z,670.4
2019-01-29T07:34:35.975Z,670.4
2019-01-29T07:35:38.149Z,670.6
2019-01-29T07:36:40.295Z,670.2
2019-01-29T07:37:42.449Z,669.6
2019-01-29T07:38:44.865Z,670
2019-01-29T07:39:47.027Z,669.5
2019-01-29T07:40:49.206Z,669.1
2019-01-29T07:41:51.375Z,669.8
2019-01-29T07:42:53.861Z,669.1
2019-01-29T07:43:56.301Z,669.6
2019-01-29T07:44:58.733Z,669
2019-01-29T07:46:01.155Z,669.2
2019-01-29T07:47:03.308Z,669
2019-01-29T07:48:05.735Z,668.9
2019-01-29T07:49:08.155Z,669.3
2019-01-29T07:50:10.581Z,668.9
2019-01-29T07:51:13.011Z,669.1
2019-01-29T07:52:15.440Z,668.9
2019-01-29T07:53:17.641Z,669
2019-01-29T07:54:19.805Z,668.9
2019-01-29T07:55:22.230Z,668.6
2019-01-29T07:56:24.391Z,668.5
2019-01-29T07:57:26.824Z,668.6
2019-01-29T07:58:28.966Z,668.6
2019-01-29T08:00:36.369Z,668.7
2019-01-29T08:01:38.503Z,668.8
2019-01-29T08:02:40.929Z,669
2019-01-29T08:03:43.352Z,668.8
2019-01-29T08:04:45.506Z,668.8
2019-01-29T08:05:47.946Z,668.6
2019-01-29T08:06:50.108Z,669
2019-01-29T08:07:52.530Z,668.6
2019-01-29T08:08:54.678Z,668.9
2019-01-29T08:09:56.825Z,668.8
2019-01-29T08:10:58.954Z,668.4
2019-01-29T08:12:01.106Z,668.5
2019-01-29T08:13:03.535Z,669
2019-01-29T08:14:05.675Z,668.5
2019-01-29T08:15:07.823Z,668.7
2019-01-29T08:16:10.245Z,668.6
2019-01-29T08:17:12.661Z,668.4
2019-01-29T08:18:15.082Z,669.2
2019-01-29T08:19:17.228Z,668.6
2019-01-29T08:20:19.668Z,668.8
2019-01-29T08:21:22.092Z,668.4
2019-01-29T08:22:24.223Z,668.6
2019-01-29T08:23:26.657Z,668.4
2019-01-29T08:24:29.535Z,668.2
2019-01-29T08:25:31.415Z,668.5
2019-01-29T08:26:33.837Z,668.3
2019-01-29T08:27:35.983Z,667.9
2019-01-29T08:28:38.415Z,667.9
2019-01-29T08:29:40.578Z,667.8
2019-01-29T08:30:43.009Z,667.7
2019-01-29T08:31:45.425Z,667.7
2019-01-29T08:32:47.882Z,667.6
2019-01-29T08:33:50.014Z,667.8
2019-01-29T08:34:52.451Z,667.5
2019-01-29T08:35:54.884Z,667.1
2019-01-29T08:36:56.755Z,667.5
2019-01-29T08:37:58.627Z,667.4
2019-01-29T08:39:01.071Z,667.4
2019-01-29T08:40:03.223Z,667.3
2019-01-29T08:41:06.543Z,667.3
2019-01-29T08:42:08.415Z,667.4
2019-01-29T08:43:10.581Z,666.8
2019-01-29T08:44:12.999Z,667.4
2019-01-29T08:45:15.442Z,667.6
2019-01-29T08:46:17.589Z,667.7
2019-01-29T08:47:19.745Z,667.6
2019-01-29T08:48:22.163Z,667.6
2019-01-29T08:49:24.319Z,667.3
2019-01-29T08:50:26.489Z,667.5
2019-01-29T08:51:28.641Z,667.8
2019-01-29T08:52:30.801Z,668
2019-01-29T08:53:32.950Z,668
2019-01-29T08:54:35.375Z,667.7
2019-01-29T08:55:37.801Z,668.2
2019-01-29T08:56:39.955Z,668.3
2019-01-29T08:57:42.381Z,668.1
2019-01-29T08:58:44.806Z,668.1
2019-01-29T08:59:47.247Z,668.1
2019-01-29T09:00:49.402Z,667.7
2019-01-29T09:01:51.825Z,667.9
2019-01-29T09:02:53.970Z,667.8
2019-01-29T09:03:56.101Z,667.7
2019-01-29T09:04:58.575Z,667.7
2019-01-29T09:06:00.733Z,667.8
2019-01-29T09:07:03.165Z,667.4
2019-01-29T09:08:05.345Z,667.7
2019-01-29T09:09:07.771Z,667.6
2019-01-29T09:10:10.217Z,667.8
2019-01-29T09:11:12.630Z,667.9
2019-01-29T09:12:14.791Z,667.5
2019-01-29T09:13:16.650Z,667.7
2019-01-29T09:14:19.128Z,667.3
2019-01-29T09:15:21.334Z,667.9
2019-01-29T09:16:23.481Z,667.9
2019-01-29T09:17:25.351Z,668
2019-01-29T09:18:27.794Z,667.9
2019-01-29T09:19:30.225Z,668.2
2019-01-29T09:20:32.667Z,668.2
2019-01-29T09:21:34.824Z,668.1
2019-01-29T09:22:36.699Z,668.2
2019-01-29T09:23:39.131Z,668.8
2019-01-29T09:24:41.573Z,669.2
2019-01-29T09:25:43.745Z,669.3
2019-01-29T09:26:45.900Z,669.3
2019-01-29T09:27:48.336Z,669.2
2019-01-29T09:28:50.501Z,669.8
2019-01-29T09:29:52.635Z,669.8
2019-01-29T09:30:55.061Z,670.1
2019-01-29T09:31:57.501Z,669.9
2019-01-29T09:32:59.075Z,670
2019-01-29T09:34:01.518Z,670.1
2019-01-29T09:35:03.928Z,670.4
2019-01-29T09:36:06.077Z,670.4
2019-01-29T09:37:08.515Z,670.5
2019-01-29T09:38:10.669Z,670.9
2019-01-29T09:39:12.805Z,670.4
2019-01-29T09:40:15.232Z,670.6
2019-01-29T09:41:17.675Z,670.5
2019-01-29T09:42:19.825Z,670.8
2019-01-29T09:43:22.249Z,671.1
2019-01-29T09:44:24.674Z,670.6
2019-01-29T09:45:27.109Z,670.4
2019-01-29T09:46:29.581Z,670.9
2019-01-29T09:47:31.999Z,670.7
2019-01-29T09:48:34.419Z,670.6
2019-01-29T09:49:36.842Z,670.6
2019-01-29T09:50:39.883Z,670.7
2019-01-29T09:51:42.323Z,670.4
2019-01-29T09:52:44.751Z,670.9
2019-01-29T09:53:46.901Z,670.7
2019-01-29T09:54:48.765Z,670.9
2019-01-29T09:55:51.197Z,671.1
2019-01-29T09:56:53.078Z,670.8
2019-01-29T09:57:55.221Z,670.9
2019-01-29T09:58:57.407Z,670.8
2019-01-29T09:59:59.558Z,670.9
2019-01-29T10:01:01.987Z,671.4
2019-01-29T10:02:04.133Z,671
2019-01-29T10:03:06.295Z,670.9
2019-01-29T10:04:08.447Z,671.2
2019-01-29T10:05:10.624Z,671.1
2019-01-29T10:06:13.071Z,671.3
2019-01-29T10:07:14.677Z,671.3
2019-01-29T10:08:16.569Z,671.6
2019-01-29T10:09:18.453Z,671.7
2019-01-29T10:10:20.880Z,671.8
2019-01-29T10:11:23.296Z,671.9
2019-01-29T10:12:25.463Z,672.4
2019-01-29T10:13:27.895Z,672.4
2019-01-29T10:14:30.323Z,672.2
2019-01-29T10:15:32.495Z,672.4
2019-01-29T10:16:34.654Z,672.5
2019-01-29T10:17:37.084Z,672.5
2019-01-29T10:18:39.496Z,672.5
2019-01-29T10:19:41.665Z,673.1
2019-01-29T10:20:44.084Z,672.7
2019-01-29T10:21:45.949Z,672.8
2019-01-29T10:22:48.126Z,672.9
2019-01-29T10:23:51.153Z,673.1
2019-01-29T10:24:53.026Z,673.3
2019-01-29T10:25:55.180Z,673.5
2019-01-29T10:26:57.071Z,673.2
2019-01-29T10:27:58.953Z,673.6
2019-01-29T10:29:01.384Z,673.6
2019-01-29T10:30:03.810Z,673.7
2019-01-29T10:31:06.244Z,674
2019-01-29T10:32:08.877Z,674
2019-01-29T10:33:11.049Z,673.8
2019-01-29T10:34:13.201Z,674.1
2019-01-29T10:35:15.103Z,674
2019-01-29T10:36:32.194Z,674.1
2019-01-29T10:37:33.796Z,674.2
2019-01-29T10:38:35.931Z,674.3
2019-01-29T10:39:38.358Z,674.5
2019-01-29T10:40:40.787Z,674.8
2019-01-29T10:41:42.931Z,675
2019-01-29T10:42:45.355Z,674.7
2019-01-29T10:43:47.520Z,675
2019-01-29T10:44:49.683Z,675.4
2019-01-29T10:45:51.855Z,675
2019-01-29T10:46:54.291Z,675.3
2019-01-29T10:47:56.726Z,675.5
2019-01-29T10:48:58.907Z,675.6
2019-01-29T10:50:01.337Z,676
2019-01-29T10:51:03.495Z,676.1
2019-01-29T10:52:05.645Z,675.9
2019-01-29T10:53:08.120Z,676.6
2019-01-29T10:54:10.287Z,676.9
2019-01-29T10:55:12.757Z,676.8
2019-01-29T10:56:15.234Z,676.6
2019-01-29T10:57:17.666Z,676.7
2019-01-29T10:58:20.097Z,676.7
2019-01-29T10:59:22.519Z,677.2
2019-01-29T11:00:24.955Z,677.5
2019-01-29T11:01:27.385Z,677.5
2019-01-29T11:02:29.805Z,678
2019-01-29T11:03:32.234Z,677.8
2019-01-29T11:04:34.664Z,678.1
2019-01-29T11:05:36.829Z,678.1
2019-01-29T11:06:39.254Z,678.3
2019-01-29T11:07:41.686Z,678.6
2019-01-29T11:08:43.862Z,678.7
2019-01-29T11:09:48.273Z,678.6
2019-01-29T11:10:50.823Z,679
2019-01-29T11:11:53.264Z,678.7
2019-01-29T11:12:55.693Z,679.1
2019-01-29T11:13:58.136Z,679
2019-01-29T11:15:00.285Z,678.9
2019-01-29T11:16:02.434Z,679.3
2019-01-29T11:17:04.847Z,679.3
2019-01-29T11:18:07.006Z,679.6
2019-01-29T11:19:09.143Z,679.5
2019-01-29T11:20:11.587Z,680
2019-01-29T11:21:14.005Z,680.1
2019-01-29T11:22:16.426Z,680.2
2019-01-29T11:23:18.577Z,680.1
2019-01-29T11:24:20.733Z,680.1
2019-01-29T11:25:23.161Z,680.5
2019-01-29T11:26:25.324Z,680.6
2019-01-29T11:27:27.218Z,680.7
2019-01-29T11:28:29.652Z,681
2019-01-29T11:29:32.072Z,681.2
2019-01-29T11:30:34.495Z,681.6
2019-01-29T11:31:36.717Z,681.7
2019-01-29T11:32:39.144Z,681.8
2019-01-29T11:33:41.571Z,681.6
2019-01-29T11:34:43.701Z,682.2
2019-01-29T11:35:46.136Z,682
2019-01-29T11:36:48.013Z,682.1
2019-01-29T11:37:50.453Z,682.2
2019-01-29T11:38:52.611Z,682.1
2019-01-29T11:39:55.048Z,682.3
2019-01-29T11:40:57.223Z,682.5
2019-01-29T11:41:59.646Z,682.4
2019-01-29T11:43:01.821Z,682.4
2019-01-29T11:44:04.250Z,682.3
2019-01-29T11:45:06.672Z,682.2
2019-01-29T11:46:08.826Z,682.4
2019-01-29T11:47:11.252Z,683.1
2019-01-29T11:48:13.434Z,682.9
2019-01-29T11:49:15.874Z,682.7
2019-01-29T11:50:18.317Z,683.2
2019-01-29T11:51:20.465Z,683.2
2019-01-29T11:52:22.892Z,683.3
2019-01-29T11:53:25.326Z,683.1
2019-01-29T11:54:27.755Z,682.9
2019-01-29T11:55:30.176Z,683.2
2019-01-29T11:56:32.060Z,683.7
2019-01-29T11:57:34.229Z,683.8
2019-01-29T11:58:36.369Z,683.8
2019-01-29T11:59:38.527Z,683.5
2019-01-29T12:00:41.037Z,684
2019-01-29T12:01:43.463Z,684.3
2019-01-29T12:02:45.634Z,683.9
2019-01-29T12:03:48.065Z,684
2019-01-29T12:04:50.510Z,684.1
2019-01-29T12:05:52.955Z,684.3
2019-01-29T12:06:55.384Z,684.5
2019-01-29T12:07:57.852Z,684.4
2019-01-29T12:09:00.277Z,685.1
2019-01-29T12:10:02.705Z,684.8
2019-01-29T12:11:04.868Z,685
2019-01-29T12:12:07.298Z,685.4
2019-01-29T12:13:09.442Z,685.6
2019-01-29T12:14:11.876Z,686
2019-01-29T12:15:14.031Z,686.1
2019-01-29T12:16:16.175Z,686.4
2019-01-29T12:17:18.078Z,686.4
2019-01-29T12:18:20.503Z,686.9
2019-01-29T12:19:22.664Z,687
2019-01-29T12:20:24.823Z,686.7
2019-01-29T12:21:27.282Z,686.8
2019-01-29T12:22:29.448Z,687.1
2019-01-29T12:23:31.866Z,687.7
2019-01-29T12:24:34.294Z,687.6
2019-01-29T12:25:36.722Z,687.6
2019-01-29T12:26:38.878Z,687.9
2019-01-29T12:27:41.030Z,687.7
2019-01-29T12:28:43.457Z,688.1
2019-01-29T12:29:45.606Z,688.3
2019-01-29T12:30:47.773Z,688.5
2019-01-29T12:31:50.194Z,688.6
2019-01-29T12:32:52.632Z,688.9
2019-01-29T12:33:54.806Z,688.6
2019-01-29T12:34:57.233Z,689.3
2019-01-29T12:35:59.673Z,688.8
2019-01-29T12:37:01.558Z,689.2
2019-01-29T12:38:03.456Z,689.1
2019-01-29T12:39:05.633Z,689.2
2019-01-29T12:40:07.786Z,689.6
2019-01-29T12:41:10.234Z,690.2
2019-01-29T12:42:12.684Z,690.1
2019-01-29T12:43:14.851Z,690.1
2019-01-29T12:44:17.271Z,690.3
2019-01-29T12:45:19.426Z,690.3
2019-01-29T12:46:21.597Z,690.4
2019-01-29T12:47:24.034Z,690.4
2019-01-29T12:48:26.471Z,690.4
2019-01-29T12:49:28.334Z,690.5
2019-01-29T12:50:30.759Z,690.6
2019-01-29T12:51:33.184Z,690.4
2019-01-29T12:52:35.616Z,690.9
2019-01-29T12:53:37.774Z,691
2019-01-29T12:54:39.947Z,691.2
2019-01-29T12:55:42.113Z,691.5
2019-01-29T12:56:44.547Z,691.3
2019-01-29T12:57:46.989Z,692
2019-01-29T12:58:49.146Z,692
2019-01-29T12:59:52.873Z,691.8
2019-01-29T13:00:55.315Z,692.4
2019-01-29T13:01:57.738Z,692.6
2019-01-29T13:03:00.154Z,692.7
2019-01-29T13:04:02.587Z,692.3
2019-01-29T13:05:05.022Z,692.8
2019-01-29T13:06:07.464Z,693
2019-01-29T13:07:09.622Z,693
2019-01-29T13:08:11.752Z,692.8
2019-01-29T13:09:14.186Z,693.3
2019-01-29T13:10:16.324Z,693.1
2019-01-29T13:11:18.754Z,693.3
2019-01-29T13:12:20.927Z,693.5
2019-01-29T13:13:23.353Z,694.1
2019-01-29T13:14:25.223Z,694.2
2019-01-29T13:15:27.086Z,693.8
2019-01-29T13:16:28.997Z,694.2
2019-01-29T13:17:31.424Z,694.3
2019-01-29T13:18:33.033Z,694.2
2019-01-29T13:19:35.185Z,694.5
2019-01-29T13:20:37.641Z,695
2019-01-29T13:21:39.796Z,694.9
2019-01-29T13:22:41.681Z,694.7
2019-01-29T13:23:44.122Z,695.4
2019-01-29T13:24:46.560Z,694.9
2019-01-29T13:25:48.994Z,695
2019-01-29T13:26:51.476Z,695.1
2019-01-29T13:27:53.698Z,695.3
2019-01-29T13:28:55.867Z,695.4
2019-01-29T13:29:58.035Z,695.3
2019-01-29T13:31:00.174Z,695.5
2019-01-29T13:32:02.316Z,696.5
2019-01-29T13:33:04.762Z,696.2
2019-01-29T13:34:07.194Z,696
2019-01-29T13:35:09.666Z,696.3